Latest Weather Observations for Brisbane Airport

IDQ60801

Issued at 9:52 am EST Tuesday 14 July 2020 (issued every 10 minutes, with the page automatically refreshed every 10 minutes)

About weather observations | Map of weather stations | Latest weather observations for QLD | Other Formats
Station Details ID: 040842 Name: BRISBANE AERO Lat: -27.39 Lon: 153.13 Height: 4.51 m
Data from the previous 72 hours. | See also: Recent months at Brisbane Airport
Date/Time
EST
Temp
°C
App
Temp
°C
Dew
Point
°C
Rel
Hum
%
Delta-T
°C
Wind Press
QNH
hPa
Press
MSL
hPa
Rain since
9am
mm
Dir  Spd
km/h
Gust
km/h
Spd
kts
Gust
kts
14/09:30am 13.6 4.4 3.6 51 4.5 W 41 56 22 30 1017.6 1017.6 0.0
14/09:00am 13.0 5.2 3.1 51 4.4 W 33 46 18 25 1017.6 1017.6 0.2
14/08:30am 12.3 4.6 3.2 54 4.0 W 33 46 18 25 1017.5 1017.5 0.2
14/08:00am 11.7 4.6 3.6 57 3.6 W 30 37 16 20 1018.0 1017.9 0.2
14/07:30am 11.0 4.3 3.7 60 3.2 WSW 28 39 15 21 1018.1 1018.0 0.2
14/07:00am 10.5 3.0 3.7 63 3.0 W 32 43 17 23 1017.6 1017.6 0.2
14/06:30am 10.2 3.9 3.6 63 2.9 W 26 37 14 20 1017.5 1017.5 0.2
14/06:00am 10.3 5.9 2.9 60 3.2 WNW 15 24 8 13 1017.4 1017.4 0.2
14/05:30am 10.1 4.5 3.2 62 3.0 WNW 22 28 12 15 1017.1 1017.1 0.2
14/05:00am 10.1 3.3 3.2 62 3.0 W 28 35 15 19 1016.7 1016.7 0.2
14/04:30am 10.3 3.5 2.9 60 3.2 W 28 35 15 19 1016.4 1016.4 0.2
14/04:00am 10.0 4.9 3.3 63 2.9 W 19 28 10 15 1016.5 1016.5 0.2
14/03:30am 9.9 5.3 3.7 65 2.7 W 17 24 9 13 1016.8 1016.8 0.2
14/03:00am 10.6 5.4 3.5 61 3.1 WNW 20 26 11 14 1016.8 1016.8 0.2
14/02:30am 10.9 5.9 3.4 60 3.3 W 19 28 10 15 1016.8 1016.8 0.2
14/02:00am 11.5 6.4 3.0 56 3.7 W 19 26 10 14 1017.3 1017.3 0.2
14/01:30am 11.1 7.2 3.3 58 3.4 W 13 17 7 9 1017.3 1017.3 0.2
14/01:00am 11.3 7.4 3.3 58 3.5 WSW 13 17 7 9 1017.8 1017.8 0.2
14/12:30am 12.1 6.8 3.0 53 4.0 WSW 20 28 11 15 1018.2 1018.1 0.2
14/12:00am 11.3 6.1 3.6 59 3.4 W 20 33 11 18 1018.3 1018.2 0.2
 
Date/Time
EST
Temp
°C
App
Temp
°C
Dew
Point
°C
Rel
Hum
%
Delta-T
°C
Wind Press
QNH
hPa
Press
MSL
hPa
Rain since
9am
mm
Dir  Spd
km/h
Gust
km/h
Spd
kts
Gust
kts
13/11:30pm 11.8 6.6 3.4 56 3.7 WSW 20 28 11 15 1018.4 1018.3 0.2
13/11:00pm 12.4 7.2 3.4 54 4.0 W 20 28 11 15 1018.6 1018.5 0.2
13/10:30pm 13.0 7.7 2.8 50 4.5 WSW 20 28 11 15 1018.7 1018.6 0.2
13/10:00pm 13.7 7.5 2.3 46 5.0 W 24 32 13 17 1018.8 1018.7 0.2
13/09:30pm 13.8 8.5 2.1 45 5.1 W 19 24 10 13 1018.9 1018.8 0.2
13/09:00pm 13.5 8.1 2.6 47 4.8 W 20 28 11 15 1018.8 1018.7 0.2
13/08:30pm 13.8 8.4 2.4 46 5.0 W 20 26 11 14 1018.9 1018.8 0.2
13/08:00pm 14.1 8.4 2.8 46 5.0 W 22 28 12 15 1018.8 1018.7 0.2
13/07:30pm 12.5 7.9 3.8 55 3.9 W 17 19 9 10 1018.5 1018.4 0.2
13/07:00pm 13.8 9.9 3.6 50 4.6 WNW 13 15 7 8 1018.0 1017.9 0.2
13/06:30pm 15.1 11.4 2.5 42 5.6 WNW 11 15 6 8 1017.4 1017.4 0.2
13/06:00pm 14.7 10.3 2.8 44 5.3 W 15 19 8 10 1017.1 1017.1 0.2
13/05:30pm 15.5 10.2 3.1 43 5.6 W 20 28 11 15 1016.8 1016.8 0.2
13/05:00pm 17.2 10.2 2.1 36 6.8 WSW 28 33 15 18 1016.3 1016.3 0.2
13/04:30pm 18.5 11.0 0.9 30 7.8 W 30 37 16 20 1016.0 1016.0 0.2
13/04:00pm 19.6 12.4 2.8 32 7.8 W 30 39 16 21 1015.7 1015.7 0.2
13/03:30pm 20.0 13.5 2.6 31 8.1 W 26 35 14 19 1015.5 1015.5 0.2
13/03:00pm 20.2 14.5 2.9 32 8.1 WSW 22 32 12 17 1015.4 1015.4 0.2
13/02:30pm 20.5 13.3 3.1 31 8.2 W 30 37 16 20 1015.3 1015.3 0.2
13/02:00pm 20.6 15.7 4.2 34 7.9 WSW 19 30 10 16 1015.3 1015.3 0.2
13/01:30pm 20.2 14.5 4.8 36 7.5 W 24 30 13 16 1015.4 1015.4 0.2
13/01:00pm 20.4 14.5 5.9 38 7.2 WSW 26 35 14 19 1015.5 1015.5 0.2
13/12:30pm 19.8 13.8 5.3 38 7.1 WSW 26 35 14 19 1015.7 1015.7 0.2
13/12:00pm 20.1 15.8 6.8 42 6.7 SW 19 26 10 14 1016.2 1016.2 0.0
13/11:30am 19.1 15.0 7.7 47 5.8 SW 19 26 10 14 1016.6 1016.6 0.0
13/11:00am 17.6 13.6 9.1 57 4.4 SW 20 26 11 14 1017.1 1017.1 0.0
13/10:30am 16.8 13.3 10.2 65 3.5 WSW 19 26 10 14 1017.4 1017.4 0.0
13/10:00am 16.2 13.4 11.2 72 2.7 WSW 17 20 9 11 1017.6 1017.6 0.0
13/09:30am 15.4 12.7 11.7 78 2.0 WSW 17 22 9 12 1017.8 1017.8 0.0
13/09:00am 15.2 12.1 12.3 83 1.6 WSW 20 26 11 14 1018.0 1017.9 6.0
13/08:30am 15.0 13.3 13.7 92 0.7 SW 15 19 8 10 1017.6 1017.6 6.0
13/08:00am 14.4 13.9 13.9 97 0.3 W 9 13 5 7 1017.4 1017.4 6.0
13/07:30am 14.1 13.9 13.6 97 0.3 SW 7 9 4 5 1016.9 1016.9 6.0
13/07:00am 14.1 13.9 13.6 97 0.3 SSW 7 9 4 5 1016.9 1016.9 6.0
13/06:30am 14.1 13.9 13.7 97 0.2 SSW 7 7 4 4 1016.6 1016.6 6.0
13/06:00am 14.4 13.9 13.9 97 0.3 SSW 9 11 5 6 1016.4 1016.4 6.0
13/05:30am 14.4 13.9 13.9 97 0.3 SSW 9 11 5 6 1016.3 1016.3 6.0
13/05:00am 14.5 14.1 14.1 97 0.2 SW 9 11 5 6 1015.9 1015.9 6.0
13/04:30am 14.4 15.0 14.2 99 0.1 SW 4 9 2 5 1015.6 1015.6 6.0
13/04:00am 14.8 14.9 14.4 97 0.2 SW 7 9 4 5 1015.6 1015.6 6.0
13/03:30am 14.7 15.0 14.5 99 0.1 SSW 6 7 3 4 1015.8 1015.8 6.0
13/03:00am 14.3 14.3 14.1 99 0.1 SW 7 9 4 5 1015.8 1015.8 6.0
13/02:30am 14.8 16.3 14.6 99 0.1 CALM 0 0 0 0 1015.8 1015.8 6.0
13/02:00am 14.5 15.9 14.3 99 0.1 CALM 0 0 0 0 1015.9 1015.9 6.0
13/01:56am 14.4 15.7 14.2 99 0.1 CALM 0 0 0 0 1015.9 1015.9 6.0
13/01:34am 14.3 15.7 14.3 100 0.0 CALM 0 0 0 0 1016.3 1016.3 6.0
13/01:30am 14.6 15.9 14.2 97 0.2 CALM 0 0 0 0 1016.2 1016.2 6.0
13/01:00am 14.7 15.0 14.5 99 0.1 SW 6 9 3 5 1016.1 1016.1 6.0
13/12:30am 15.1 16.6 14.7 97 0.2 CALM 0 0 0 0 1016.4 1016.4 6.0
13/12:00am 15.0 15.3 14.5 97 0.3 SW 6 9 3 5 1016.7 1016.7 6.0
 
Date/Time
EST
Temp
°C
App
Temp
°C
Dew
Point
°C
Rel
Hum
%
Delta-T
°C
Wind Press
QNH
hPa
Press
MSL
hPa
Rain since
9am
mm
Dir  Spd
km/h
Gust
km/h
Spd
kts
Gust
kts
12/11:30pm 15.0 16.4 14.5 97 0.3 CALM 0 0 0 0 1017.0 1017.0 6.0
12/11:00pm 14.9 16.3 14.5 97 0.2 CALM 0 0 0 0 1016.8 1016.8 6.0
12/10:30pm 14.8 15.1 14.6 99 0.1 NNW 6 9 3 5 1016.9 1016.9 6.0
12/10:00pm 14.5 15.9 14.3 99 0.1 CALM 0 0 0 0 1016.8 1016.8 6.0
12/09:30pm 14.5 15.0 14.1 97 0.2 NW 4 7 2 4 1017.2 1017.2 5.8
12/09:00pm 14.8 15.0 14.3 97 0.3 WNW 6 7 3 4 1016.9 1016.9 5.8
12/08:30pm 15.0 15.3 14.5 97 0.3 NW 6 11 3 6 1016.9 1016.9 5.8
12/08:24pm 14.9 15.0 14.5 97 0.2 NNW 7 11 4 6 1017.2 1017.2 5.4
12/08:00pm 15.3 15.0 14.4 94 0.5 NNW 9 11 5 6 1016.9 1016.9 4.0
12/07:30pm 15.6 16.6 14.4 93 0.7 N 2 9 1 5 1016.9 1016.9 2.2
12/07:26pm 15.6 16.7 14.5 93 0.6 NNE 2 9 1 5 1016.8 1016.8 2.0
12/07:00pm 15.9 16.9 14.3 90 0.9 ENE 2 7 1 4 1016.2 1016.2 1.0
12/06:30pm 15.7 16.5 14.7 94 0.6 WNW 4 6 2 3 1016.1 1016.1 1.0
12/06:00pm 15.8 15.4 14.2 90 0.9 W 9 11 5 6 1016.0 1016.0 0.8
12/05:30pm 16.1 16.0 14.9 93 0.7 WNW 9 11 5 6 1015.8 1015.8 0.6
12/05:00pm 16.0 13.8 14.4 90 0.9 WSW 19 26 10 14 1015.4 1015.4 0.2
12/04:44pm 17.0 15.7 13.8 81 1.8 W 13 22 7 12 1015.5 1015.5 0.0
12/04:38pm 17.8 16.9 13.6 76 2.4 W 11 15 6 8 1015.4 1015.4 0.0
12/04:30pm 17.9 16.8 14.2 79 2.1 WSW 13 17 7 9 1015.2 1015.2 0.0
12/04:00pm 18.7 16.9 13.2 70 3.1 SW 15 17 8 9 1015.0 1015.0 0.0
12/03:30pm 19.4 18.3 13.0 66 3.6 WSW 11 15 6 8 1014.7 1014.7 0.0
12/03:00pm 19.6 16.4 12.0 61 4.2 SW 20 26 11 14 1014.5 1014.5 0.0
12/02:30pm 20.1 17.2 12.2 60 4.4 WSW 19 24 10 13 1014.6 1014.6 0.0
12/02:00pm 20.3 17.7 13.7 66 3.8 SW 20 26 11 14 1014.7 1014.7 0.0
12/01:30pm 20.7 17.3 13.6 64 4.1 SW 24 32 13 17 1014.9 1014.9 0.0
12/01:00pm 20.7 18.0 13.4 63 4.2 WSW 20 28 11 15 1015.1 1015.1 0.0
12/12:30pm 22.1 20.5 13.8 59 4.8 SW 15 24 8 13 1015.1 1015.1 0.0
12/12:00pm 21.6 21.0 14.6 64 4.1 N 11 13 6 7 1015.2 1015.2 0.0
12/11:30am 21.4 20.8 14.6 65 4.0 NNE 11 15 6 8 1015.4 1015.4 0.0
12/11:00am 22.2 21.4 14.1 60 4.7 N 11 15 6 8 1016.0 1016.0 0.0
12/10:30am 21.4 21.3 15.0 67 3.8 WSW 9 13 5 7 1016.3 1016.3 0.0
12/10:00am 19.6 19.9 15.0 75 2.7 NW 7 9 4 5 1016.7 1016.7 0.0
12/09:30am 19.0 20.3 15.1 78 2.3 NW 2 9 1 5 1016.9 1016.9 0.0
12/09:00am 17.6 18.1 15.6 88 1.2 WSW 7 11 4 6 1016.9 1016.9 0.2
12/08:30am 16.0 17.6 14.8 93 0.7 CALM 0 0 0 0 1016.8 1016.8 0.2
12/08:00am 15.3 16.8 14.6 96 0.4 CALM 0 0 0 0 1016.7 1016.7 0.2
12/07:44am 14.2 15.4 13.7 97 0.3 CALM 0 0 0 0 1016.7 1016.7 0.2
12/07:30am 12.9 13.7 12.5 97 0.2 CALM 0 6 0 3 1016.7 1016.7 0.2
12/07:17am 12.5 13.2 12.3 99 0.1 CALM 0 0 0 0 1016.6 1016.6 0.2
12/07:00am 12.3 13.0 12.3 100 0.0 CALM 0 0 0 0 1016.4 1016.4 0.2
12/06:49am 12.3 13.0 12.1 99 0.1 CALM 0 0 0 0 1016.2 1016.2 0.2
12/06:45am 12.5 13.2 12.3 99 0.1 CALM 0 0 0 0 1016.0 1016.0 0.2
12/06:30am 12.8 13.6 12.4 97 0.2 CALM 0 0 0 0 1015.7 1015.7 0.2
12/06:00am 13.6 14.6 13.2 97 0.2 CALM 0 0 0 0 1015.7 1015.7 0.2
12/05:56am 13.2 14.1 13.0 99 0.1 CALM 0 0 0 0 1015.6 1015.6 0.2
12/05:30am 13.5 13.3 13.0 97 0.3 SW 6 7 3 4 1015.6 1015.6 0.2
12/05:00am 12.3 12.8 11.7 96 0.3 CALM 0 0 0 0 1015.5 1015.5 0.2
12/04:30am 13.3 14.1 12.7 96 0.3 CALM 0 0 0 0 1015.4 1015.4 0.2
12/04:18am 13.3 13.5 12.9 97 0.2 SW 4 7 2 4 1015.4 1015.4 0.2
12/04:00am 13.2 14.1 12.8 97 0.2 CALM 0 0 0 0 1015.5 1015.5 0.2
12/03:30am 13.4 14.5 13.4 100 0.0 CALM 0 0 0 0 1015.7 1015.7 0.2
12/03:00am 13.1 14.1 13.1 100 0.0 CALM 0 0 0 0 1015.8 1015.8 0.2
12/02:30am 13.2 14.2 13.2 100 0.0 CALM 0 0 0 0 1016.0 1016.0 0.2
12/02:00am 13.9 15.1 13.7 99 0.1 CALM 0 0 0 0 1016.1 1016.1 0.2
12/01:30am 13.8 14.9 13.6 99 0.1 CALM 0 0 0 0 1016.4 1016.4 0.2
12/01:00am 14.7 16.0 14.2 97 0.3 CALM 0 0 0 0 1016.7 1016.7 0.2
12/12:30am 15.4 16.0 14.2 92 0.7 NNW 4 9 2 5 1017.1 1017.1 0.2
12/12:00am 15.5 15.8 14.4 93 0.6 N 6 7 3 4 1017.3 1017.3 0.2
 
Date/Time
EST
Temp
°C
App
Temp
°C
Dew
Point
°C
Rel
Hum
%
Delta-T
°C
Wind Press
QNH
hPa
Press
MSL
hPa
Rain since
9am
mm
Dir  Spd
km/h
Gust
km/h
Spd
kts
Gust
kts
11/11:30pm 15.3 15.3 14.2 93 0.6 WNW 7 11 4 6 1017.4 1017.4 0.2
11/11:00pm 15.4 16.9 14.7 96 0.4 CALM 0 0 0 0 1017.5 1017.5 0.2
11/10:30pm 15.3 15.6 14.6 96 0.4 NW 6 9 3 5 1017.6 1017.6 0.2
11/10:00pm 16.1 16.0 14.9 93 0.7 NNW 9 13 5 7 1017.7 1017.7 0.2
11/09:30pm 15.8 15.7 14.9 94 0.5 NNW 9 11 5 6 1017.7 1017.7 0.2
11/09:00pm 15.6 15.2 15.1 97 0.3 N 11 13 6 7 1017.6 1017.6 0.2
11/08:30pm 16.1 15.4 15.4 96 0.4 N 13 15 7 8 1017.7 1017.7 0.2
11/08:00pm 15.9 16.0 15.4 97 0.3 NNE 9 9 5 5 1017.8 1017.8 0.2
11/07:30pm 16.2 15.8 15.3 94 0.5 NNE 11 13 6 7 1017.8 1017.8 0.2
11/07:00pm 16.5 16.7 15.8 96 0.4 NNE 9 11 5 6 1017.7 1017.7 0.2
11/06:30pm 16.8 16.6 15.8 94 0.6 N 11 11 6 6 1017.6 1017.6 0.2
11/06:00pm 17.1 17.7 15.9 93 0.7 NNE 7 11 4 6 1017.3 1017.3 0.2
11/05:30pm 17.5 17.8 16.0 91 0.9 NE 9 13 5 7 1017.2 1017.2 0.2
11/05:00pm 18.2 17.6 15.7 85 1.5 NE 13 15 7 8 1017.0 1017.0 0.2
11/04:30pm 19.6 18.5 15.2 76 2.6 NE 15 20 8 11 1016.8 1016.8 0.2
11/04:00pm 20.2 18.2 14.9 71 3.1 NE 19 24 10 13 1016.9 1016.9 0.2
11/03:30pm 20.8 18.9 15.2 70 3.3 NE 19 28 10 15 1017.0 1017.0 0.2
11/03:00pm 21.0 19.1 15.1 69 3.5 NE 19 24 10 13 1017.1 1017.1 0.2
11/02:30pm 21.5 20.4 15.3 68 3.7 NE 15 19 8 10 1017.3 1017.3 0.2
11/02:00pm 21.3 20.3 14.6 65 3.9 NE 13 17 7 9 1017.5 1017.5 0.2
11/01:30pm 21.9 21.2 15.3 66 3.9 NE 13 19 7 10 1018.0 1017.9 0.2
11/01:00pm 21.9 21.1 15.1 65 4.0 NE 13 19 7 10 1018.2 1018.1 0.2
11/12:30pm 21.4 20.5 14.9 66 3.8 NE 13 17 7 9 1018.5 1018.4 0.2
11/12:00pm 21.6 20.8 15.2 67 3.8 NNE 13 15 7 8 1018.9 1018.8 0.2
11/11:30am 21.5 21.7 15.8 70 3.4 NNW 9 13 5 7 1019.6 1019.5 0.0
11/11:00am 20.8 21.0 15.8 73 3.0 NNE 9 13 5 7 1020.2 1020.1 0.0
11/10:30am 19.6 20.2 15.7 78 2.3 WSW 7 13 4 7 1020.5 1020.4 0.0
11/10:00am 19.0 20.3 16.1 83 1.7 NW 4 7 2 4 1020.9 1020.8 0.0

Other formats

Comma delimited format used in spreadsheet applications
http://www.bom.gov.au/fwo/IDQ60801/IDQ60801.94578.axf

JavaScript Object Notation format (JSON) in row-major order
http://www.bom.gov.au/fwo/IDQ60801/IDQ60801.94578.json

Data quality

Most of these data are generated automatically and are frequently updated. Quality checks on data are not normally performed. It is possible for incorrect values to appear. Refer to information at About Latest Weather Observations and please check the disclaimer before using these data.